sensor_id;sensor_type;location;lat;lon;timestamp;P1;durP1;ratioP1;P2;durP2;ratioP2
82779;SDS011;72511;45.120;20.720;2024-01-06T00:07:43;24.48;;;10.30;;
82779;SDS011;72511;45.120;20.720;2024-01-06T00:17:44;13.10;;;5.97;;
82779;SDS011;72511;45.120;20.720;2024-01-06T00:27:45;22.02;;;10.05;;
82779;SDS011;72511;45.120;20.720;2024-01-06T00:37:47;20.75;;;8.55;;
82779;SDS011;72511;45.120;20.720;2024-01-06T00:47:48;20.08;;;8.93;;
82779;SDS011;72511;45.120;20.720;2024-01-06T00:57:50;19.30;;;8.05;;
82779;SDS011;72511;45.120;20.720;2024-01-06T01:07:52;16.80;;;6.90;;
82779;SDS011;72511;45.120;20.720;2024-01-06T01:17:53;19.33;;;9.25;;
82779;SDS011;72511;45.120;20.720;2024-01-06T01:27:55;13.68;;;6.07;;
82779;SDS011;72511;45.120;20.720;2024-01-06T01:37:56;7.55;;;4.22;;
82779;SDS011;72511;45.120;20.720;2024-01-06T01:47:57;10.10;;;5.55;;
82779;SDS011;72511;45.120;20.720;2024-01-06T01:57:59;9.20;;;4.25;;
82779;SDS011;72511;45.120;20.720;2024-01-06T02:08:00;7.10;;;4.40;;
82779;SDS011;72511;45.120;20.720;2024-01-06T02:18:02;7.80;;;4.47;;
82779;SDS011;72511;45.120;20.720;2024-01-06T02:28:04;7.60;;;4.18;;
82779;SDS011;72511;45.120;20.720;2024-01-06T02:38:05;6.32;;;2.95;;
82779;SDS011;72511;45.120;20.720;2024-01-06T02:48:07;6.85;;;3.38;;
82779;SDS011;72511;45.120;20.720;2024-01-06T02:58:09;8.95;;;4.22;;
82779;SDS011;72511;45.120;20.720;2024-01-06T03:08:10;7.00;;;3.47;;
82779;SDS011;72511;45.120;20.720;2024-01-06T03:18:11;5.32;;;2.50;;
82779;SDS011;72511;45.120;20.720;2024-01-06T03:28:13;4.55;;;2.53;;
82779;SDS011;72511;45.120;20.720;2024-01-06T03:38:14;5.85;;;2.90;;
82779;SDS011;72511;45.120;20.720;2024-01-06T03:48:16;6.03;;;3.30;;
82779;SDS011;72511;45.120;20.720;2024-01-06T03:58:17;7.53;;;2.85;;
82779;SDS011;72511;45.120;20.720;2024-01-06T04:08:19;4.90;;;2.85;;
82779;SDS011;72511;45.120;20.720;2024-01-06T04:18:20;8.00;;;3.65;;
82779;SDS011;72511;45.120;20.720;2024-01-06T04:28:22;4.43;;;2.70;;
82779;SDS011;72511;45.120;20.720;2024-01-06T04:38:23;4.93;;;2.20;;
82779;SDS011;72511;45.120;20.720;2024-01-06T04:48:24;8.27;;;3.53;;
82779;SDS011;72511;45.120;20.720;2024-01-06T04:58:26;4.82;;;2.85;;
82779;SDS011;72511;45.120;20.720;2024-01-06T05:08:27;5.35;;;2.72;;
82779;SDS011;72511;45.120;20.720;2024-01-06T05:18:31;4.32;;;2.40;;
82779;SDS011;72511;45.120;20.720;2024-01-06T05:28:33;6.82;;;3.80;;
82779;SDS011;72511;45.120;20.720;2024-01-06T05:38:36;4.97;;;3.45;;
82779;SDS011;72511;45.120;20.720;2024-01-06T05:48:37;6.45;;;3.63;;
82779;SDS011;72511;45.120;20.720;2024-01-06T05:58:38;6.10;;;3.70;;
82779;SDS011;72511;45.120;20.720;2024-01-06T06:08:41;6.43;;;3.72;;
82779;SDS011;72511;45.120;20.720;2024-01-06T06:18:43;5.80;;;2.95;;
82779;SDS011;72511;45.120;20.720;2024-01-06T06:28:45;5.35;;;2.83;;
82779;SDS011;72511;45.120;20.720;2024-01-06T06:38:46;10.73;;;4.90;;
82779;SDS011;72511;45.120;20.720;2024-01-06T06:48:48;10.43;;;5.22;;
82779;SDS011;72511;45.120;20.720;2024-01-06T06:58:49;10.13;;;5.13;;
82779;SDS011;72511;45.120;20.720;2024-01-06T07:08:50;10.68;;;4.82;;
82779;SDS011;72511;45.120;20.720;2024-01-06T07:18:52;23.08;;;10.63;;
82779;SDS011;72511;45.120;20.720;2024-01-06T07:28:53;10.02;;;4.90;;
82779;SDS011;72511;45.120;20.720;2024-01-06T07:38:54;10.82;;;6.15;;
82779;SDS011;72511;45.120;20.720;2024-01-06T07:48:56;7.38;;;4.15;;
82779;SDS011;72511;45.120;20.720;2024-01-06T07:58:57;13.82;;;8.18;;
82779;SDS011;72511;45.120;20.720;2024-01-06T08:08:59;11.85;;;6.63;;
82779;SDS011;72511;45.120;20.720;2024-01-06T08:19:00;15.75;;;8.80;;
82779;SDS011;72511;45.120;20.720;2024-01-06T08:29:03;11.57;;;6.93;;
82779;SDS011;72511;45.120;20.720;2024-01-06T08:39:04;18.92;;;8.57;;
82779;SDS011;72511;45.120;20.720;2024-01-06T08:49:06;18.67;;;8.88;;
82779;SDS011;72511;45.120;20.720;2024-01-06T08:59:07;17.52;;;9.77;;
82779;SDS011;72511;45.120;20.720;2024-01-06T09:09:08;25.92;;;15.77;;
82779;SDS011;72511;45.120;20.720;2024-01-06T09:19:10;17.30;;;8.85;;
82779;SDS011;72511;45.120;20.720;2024-01-06T09:29:12;15.10;;;9.38;;
82779;SDS011;72511;45.120;20.720;2024-01-06T09:39:14;14.45;;;7.32;;
82779;SDS011;72511;45.120;20.720;2024-01-06T09:49:22;19.10;;;9.02;;
82779;SDS011;72511;45.120;20.720;2024-01-06T09:59:24;15.27;;;9.23;;
82779;SDS011;72511;45.120;20.720;2024-01-06T10:09:26;12.43;;;6.65;;
82779;SDS011;72511;45.120;20.720;2024-01-06T10:19:28;15.32;;;7.30;;
82779;SDS011;72511;45.120;20.720;2024-01-06T10:29:30;14.25;;;6.75;;
82779;SDS011;72511;45.120;20.720;2024-01-06T10:39:31;12.07;;;5.78;;
82779;SDS011;72511;45.120;20.720;2024-01-06T10:49:33;9.75;;;5.57;;
82779;SDS011;72511;45.120;20.720;2024-01-06T10:59:42;14.65;;;7.20;;
82779;SDS011;72511;45.120;20.720;2024-01-06T11:20:05;19.73;;;10.38;;
82779;SDS011;72511;45.120;20.720;2024-01-06T11:30:07;22.00;;;9.73;;
82779;SDS011;72511;45.120;20.720;2024-01-06T11:40:09;13.05;;;8.40;;
82779;SDS011;72511;45.120;20.720;2024-01-06T11:50:24;11.82;;;8.02;;
82779;SDS011;72511;45.120;20.720;2024-01-06T12:00:27;11.43;;;6.70;;
82779;SDS011;72511;45.120;20.720;2024-01-06T12:10:29;15.65;;;7.65;;
82779;SDS011;72511;45.120;20.720;2024-01-06T12:20:31;19.63;;;7.72;;
82779;SDS011;72511;45.120;20.720;2024-01-06T12:30:33;16.73;;;8.15;;
82779;SDS011;72511;45.120;20.720;2024-01-06T12:40:36;20.42;;;8.93;;
82779;SDS011;72511;45.120;20.720;2024-01-06T12:50:38;11.80;;;7.30;;
82779;SDS011;72511;45.120;20.720;2024-01-06T13:00:39;14.00;;;7.53;;
82779;SDS011;72511;45.120;20.720;2024-01-06T13:10:40;13.20;;;7.00;;
82779;SDS011;72511;45.120;20.720;2024-01-06T13:20:42;40.15;;;16.17;;
82779;SDS011;72511;45.120;20.720;2024-01-06T13:30:44;18.23;;;9.25;;
82779;SDS011;72511;45.120;20.720;2024-01-06T13:40:45;9.13;;;5.50;;
82779;SDS011;72511;45.120;20.720;2024-01-06T13:50:47;10.02;;;6.07;;
82779;SDS011;72511;45.120;20.720;2024-01-06T14:00:48;16.60;;;8.57;;
82779;SDS011;72511;45.120;20.720;2024-01-06T14:10:50;15.15;;;8.60;;
82779;SDS011;72511;45.120;20.720;2024-01-06T14:20:52;15.85;;;6.93;;
82779;SDS011;72511;45.120;20.720;2024-01-06T14:30:55;15.43;;;8.48;;
82779;SDS011;72511;45.120;20.720;2024-01-06T14:40:56;39.85;;;19.65;;
82779;SDS011;72511;45.120;20.720;2024-01-06T14:50:57;38.53;;;18.98;;
82779;SDS011;72511;45.120;20.720;2024-01-06T15:00:58;34.08;;;16.95;;
82779;SDS011;72511;45.120;20.720;2024-01-06T15:11:00;22.73;;;12.15;;
82779;SDS011;72511;45.120;20.720;2024-01-06T15:21:03;62.22;;;29.02;;
82779;SDS011;72511;45.120;20.720;2024-01-06T15:31:04;28.38;;;13.63;;
82779;SDS011;72511;45.120;20.720;2024-01-06T15:41:06;48.90;;;21.40;;
82779;SDS011;72511;45.120;20.720;2024-01-06T15:51:08;26.23;;;14.02;;
82779;SDS011;72511;45.120;20.720;2024-01-06T16:01:09;30.90;;;15.02;;
82779;SDS011;72511;45.120;20.720;2024-01-06T16:11:11;13.77;;;7.93;;
82779;SDS011;72511;45.120;20.720;2024-01-06T16:21:20;25.20;;;11.45;;
82779;SDS011;72511;45.120;20.720;2024-01-06T16:31:22;45.50;;;19.73;;
82779;SDS011;72511;45.120;20.720;2024-01-06T16:41:24;41.05;;;16.27;;
82779;SDS011;72511;45.120;20.720;2024-01-06T16:51:27;24.92;;;11.90;;
82779;SDS011;72511;45.120;20.720;2024-01-06T17:01:29;29.48;;;16.27;;
82779;SDS011;72511;45.120;20.720;2024-01-06T17:11:30;22.48;;;11.90;;
82779;SDS011;72511;45.120;20.720;2024-01-06T17:21:32;22.85;;;11.23;;
82779;SDS011;72511;45.120;20.720;2024-01-06T17:31:35;24.40;;;10.68;;
82779;SDS011;72511;45.120;20.720;2024-01-06T17:41:36;18.52;;;7.13;;
82779;SDS011;72511;45.120;20.720;2024-01-06T17:51:38;9.73;;;7.03;;
82779;SDS011;72511;45.120;20.720;2024-01-06T18:01:40;16.92;;;8.68;;
82779;SDS011;72511;45.120;20.720;2024-01-06T18:11:41;13.85;;;7.10;;
82779;SDS011;72511;45.120;20.720;2024-01-06T18:21:44;16.48;;;8.00;;
82779;SDS011;72511;45.120;20.720;2024-01-06T18:31:45;16.20;;;10.20;;
82779;SDS011;72511;45.120;20.720;2024-01-06T18:41:47;19.77;;;12.45;;
82779;SDS011;72511;45.120;20.720;2024-01-06T18:51:48;10.70;;;5.93;;
82779;SDS011;72511;45.120;20.720;2024-01-06T19:01:50;15.35;;;7.85;;
82779;SDS011;72511;45.120;20.720;2024-01-06T19:11:52;14.63;;;8.40;;
82779;SDS011;72511;45.120;20.720;2024-01-06T19:21:54;14.52;;;7.78;;
82779;SDS011;72511;45.120;20.720;2024-01-06T19:31:56;19.30;;;9.00;;
82779;SDS011;72511;45.120;20.720;2024-01-06T19:42:00;14.77;;;7.18;;
82779;SDS011;72511;45.120;20.720;2024-01-06T19:52:01;19.05;;;10.27;;
82779;SDS011;72511;45.120;20.720;2024-01-06T20:02:04;20.02;;;11.02;;
82779;SDS011;72511;45.120;20.720;2024-01-06T20:12:05;19.60;;;10.25;;
82779;SDS011;72511;45.120;20.720;2024-01-06T20:22:07;20.10;;;11.45;;
82779;SDS011;72511;45.120;20.720;2024-01-06T20:32:10;32.13;;;16.60;;
82779;SDS011;72511;45.120;20.720;2024-01-06T20:42:12;19.05;;;9.68;;
82779;SDS011;72511;45.120;20.720;2024-01-06T20:52:14;11.90;;;6.40;;
82779;SDS011;72511;45.120;20.720;2024-01-06T21:02:17;12.50;;;5.32;;
82779;SDS011;72511;45.120;20.720;2024-01-06T21:12:21;8.98;;;5.65;;
82779;SDS011;72511;45.120;20.720;2024-01-06T21:22:23;8.57;;;4.32;;
82779;SDS011;72511;45.120;20.720;2024-01-06T21:32:25;10.13;;;5.78;;
82779;SDS011;72511;45.120;20.720;2024-01-06T21:42:27;12.30;;;6.20;;
82779;SDS011;72511;45.120;20.720;2024-01-06T21:52:28;9.90;;;4.78;;
82779;SDS011;72511;45.120;20.720;2024-01-06T22:02:30;8.43;;;4.07;;
82779;SDS011;72511;45.120;20.720;2024-01-06T22:12:34;7.35;;;3.53;;
82779;SDS011;72511;45.120;20.720;2024-01-06T22:22:35;6.30;;;3.80;;
82779;SDS011;72511;45.120;20.720;2024-01-06T22:32:37;7.72;;;4.47;;
82779;SDS011;72511;45.120;20.720;2024-01-06T22:42:39;10.10;;;4.50;;
82779;SDS011;72511;45.120;20.720;2024-01-06T22:52:41;8.68;;;4.40;;
82779;SDS011;72511;45.120;20.720;2024-01-06T23:02:43;10.02;;;4.40;;
82779;SDS011;72511;45.120;20.720;2024-01-06T23:12:45;11.52;;;4.88;;
82779;SDS011;72511;45.120;20.720;2024-01-06T23:22:46;10.73;;;4.60;;
82779;SDS011;72511;45.120;20.720;2024-01-06T23:32:48;6.40;;;3.85;;
82779;SDS011;72511;45.120;20.720;2024-01-06T23:42:49;8.25;;;4.03;;
82779;SDS011;72511;45.120;20.720;2024-01-06T23:52:50;17.70;;;7.30;;
